sensor_id;sensor_type;location;lat;lon;timestamp;pressure;altitude;pressure_sealevel;temperature;humidity
10261;BME280;5175;42.606;23.388;2023-05-31T00:00:00;93837.22;;;15.26;100.00
10261;BME280;5175;42.606;23.388;2023-05-31T00:02:27;93837.41;;;15.29;100.00
10261;BME280;5175;42.606;23.388;2023-05-31T00:04:57;93839.19;;;15.34;100.00
10261;BME280;5175;42.606;23.388;2023-05-31T00:07:24;93837.66;;;15.41;100.00
10261;BME280;5175;42.606;23.388;2023-05-31T00:09:50;93832.09;;;15.38;100.00
10261;BME280;5175;42.606;23.388;2023-05-31T00:12:18;93833.94;;;15.29;100.00
10261;BME280;5175;42.606;23.388;2023-05-31T00:14:45;93834.91;;;15.33;100.00
10261;BME280;5175;42.606;23.388;2023-05-31T00:17:12;93841.06;;;15.33;100.00
10261;BME280;5175;42.606;23.388;2023-05-31T00:19:39;93836.75;;;15.24;100.00
10261;BME280;5175;42.606;23.388;2023-05-31T00:22:06;93834.78;;;15.16;100.00
10261;BME280;5175;42.606;23.388;2023-05-31T00:24:33;93826.44;;;15.17;100.00
10261;BME280;5175;42.606;23.388;2023-05-31T00:27:00;93839.56;;;15.19;100.00
10261;BME280;5175;42.606;23.388;2023-05-31T00:29:28;93833.81;;;15.12;100.00
10261;BME280;5175;42.606;23.388;2023-05-31T00:31:56;93835.56;;;15.16;100.00
10261;BME280;5175;42.606;23.388;2023-05-31T00:34:22;93839.06;;;15.17;100.00
10261;BME280;5175;42.606;23.388;2023-05-31T00:36:49;93838.69;;;15.32;100.00
10261;BME280;5175;42.606;23.388;2023-05-31T00:39:16;93838.22;;;15.30;100.00
10261;BME280;5175;42.606;23.388;2023-05-31T00:41:43;93835.41;;;15.35;100.00
10261;BME280;5175;42.606;23.388;2023-05-31T00:44:10;93814.94;;;15.25;100.00
10261;BME280;5175;42.606;23.388;2023-05-31T00:46:40;93838.56;;;15.37;100.00
10261;BME280;5175;42.606;23.388;2023-05-31T00:49:07;93837.03;;;15.44;100.00
10261;BME280;5175;42.606;23.388;2023-05-31T00:51:35;93849.16;;;15.55;100.00
10261;BME280;5175;42.606;23.388;2023-05-31T00:54:03;93845.47;;;15.74;100.00
10261;BME280;5175;42.606;23.388;2023-05-31T00:56:30;93837.41;;;15.74;100.00
10261;BME280;5175;42.606;23.388;2023-05-31T00:58:57;93838.69;;;15.76;100.00
10261;BME280;5175;42.606;23.388;2023-05-31T01:01:26;93844.22;;;15.80;100.00
10261;BME280;5175;42.606;23.388;2023-05-31T01:03:59;93849.00;;;15.83;100.00
10261;BME280;5175;42.606;23.388;2023-05-31T01:06:27;93846.50;;;15.86;100.00
10261;BME280;5175;42.606;23.388;2023-05-31T01:08:58;93853.44;;;15.87;100.00
10261;BME280;5175;42.606;23.388;2023-05-31T01:11:31;93854.13;;;15.93;100.00
10261;BME280;5175;42.606;23.388;2023-05-31T01:14:04;93854.78;;;15.68;100.00
10261;BME280;5175;42.606;23.388;2023-05-31T01:16:39;93847.50;;;15.68;100.00
10261;BME280;5175;42.606;23.388;2023-05-31T01:19:19;93852.69;;;15.64;100.00
10261;BME280;5175;42.606;23.388;2023-05-31T01:21:55;93851.16;;;15.72;100.00
10261;BME280;5175;42.606;23.388;2023-05-31T01:24:40;93850.19;;;15.68;100.00
10261;BME280;5175;42.606;23.388;2023-05-31T01:27:12;93848.44;;;15.63;100.00
10261;BME280;5175;42.606;23.388;2023-05-31T01:29:42;93847.63;;;15.63;100.00
10261;BME280;5175;42.606;23.388;2023-05-31T01:32:10;93847.56;;;15.32;100.00
10261;BME280;5175;42.606;23.388;2023-05-31T01:34:39;93850.06;;;15.29;100.00
10261;BME280;5175;42.606;23.388;2023-05-31T01:37:09;93849.69;;;15.44;100.00
10261;BME280;5175;42.606;23.388;2023-05-31T01:39:36;93848.50;;;15.50;100.00
10261;BME280;5175;42.606;23.388;2023-05-31T01:42:04;93836.97;;;15.36;100.00
10261;BME280;5175;42.606;23.388;2023-05-31T01:44:33;93851.88;;;15.55;100.00
10261;BME280;5175;42.606;23.388;2023-05-31T01:47:01;93842.88;;;15.60;100.00
10261;BME280;5175;42.606;23.388;2023-05-31T01:49:28;93846.16;;;15.57;100.00
10261;BME280;5175;42.606;23.388;2023-05-31T01:51:56;93837.13;;;15.53;100.00
10261;BME280;5175;42.606;23.388;2023-05-31T01:54:24;93845.09;;;15.44;100.00
10261;BME280;5175;42.606;23.388;2023-05-31T01:56:52;93841.06;;;15.33;100.00
10261;BME280;5175;42.606;23.388;2023-05-31T01:59:20;93842.66;;;15.34;100.00
10261;BME280;5175;42.606;23.388;2023-05-31T02:01:49;93845.66;;;15.11;100.00
10261;BME280;5175;42.606;23.388;2023-05-31T02:04:17;93846.34;;;15.16;100.00
10261;BME280;5175;42.606;23.388;2023-05-31T02:06:45;93852.13;;;15.32;100.00
10261;BME280;5175;42.606;23.388;2023-05-31T02:09:12;93856.72;;;15.31;100.00
10261;BME280;5175;42.606;23.388;2023-05-31T02:11:39;93848.97;;;15.30;100.00
10261;BME280;5175;42.606;23.388;2023-05-31T02:14:06;93850.97;;;15.24;100.00
10261;BME280;5175;42.606;23.388;2023-05-31T02:16:33;93860.53;;;15.30;100.00
10261;BME280;5175;42.606;23.388;2023-05-31T02:19:01;93855.50;;;15.37;100.00
10261;BME280;5175;42.606;23.388;2023-05-31T02:21:28;93857.25;;;15.55;100.00
10261;BME280;5175;42.606;23.388;2023-05-31T02:23:55;93854.56;;;15.55;100.00
10261;BME280;5175;42.606;23.388;2023-05-31T02:26:22;93855.56;;;15.68;100.00
10261;BME280;5175;42.606;23.388;2023-05-31T02:28:49;93854.72;;;15.59;100.00
10261;BME280;5175;42.606;23.388;2023-05-31T02:31:16;93849.97;;;15.56;100.00
10261;BME280;5175;42.606;23.388;2023-05-31T02:33:43;93848.72;;;15.40;100.00
10261;BME280;5175;42.606;23.388;2023-05-31T02:36:11;93854.03;;;15.31;100.00
10261;BME280;5175;42.606;23.388;2023-05-31T02:38:38;93854.81;;;15.32;100.00
10261;BME280;5175;42.606;23.388;2023-05-31T02:41:05;93859.34;;;15.45;100.00
10261;BME280;5175;42.606;23.388;2023-05-31T02:43:34;93854.56;;;15.42;100.00
10261;BME280;5175;42.606;23.388;2023-05-31T02:46:01;93856.38;;;15.46;100.00
10261;BME280;5175;42.606;23.388;2023-05-31T02:48:28;93861.28;;;15.31;100.00
10261;BME280;5175;42.606;23.388;2023-05-31T02:50:55;93847.13;;;15.39;100.00
10261;BME280;5175;42.606;23.388;2023-05-31T02:53:23;93850.66;;;15.26;100.00
10261;BME280;5175;42.606;23.388;2023-05-31T02:55:52;93855.78;;;15.36;100.00
10261;BME280;5175;42.606;23.388;2023-05-31T02:58:19;93857.72;;;15.35;100.00
10261;BME280;5175;42.606;23.388;2023-05-31T03:00:46;93846.09;;;15.26;100.00
10261;BME280;5175;42.606;23.388;2023-05-31T03:03:13;93858.34;;;15.41;100.00
10261;BME280;5175;42.606;23.388;2023-05-31T03:05:43;93862.56;;;15.47;100.00
10261;BME280;5175;42.606;23.388;2023-05-31T03:08:11;93861.63;;;15.51;100.00
10261;BME280;5175;42.606;23.388;2023-05-31T03:10:39;93864.38;;;15.60;100.00
10261;BME280;5175;42.606;23.388;2023-05-31T03:13:06;93865.34;;;15.42;100.00
10261;BME280;5175;42.606;23.388;2023-05-31T03:15:33;93858.25;;;15.46;100.00
10261;BME280;5175;42.606;23.388;2023-05-31T03:18:01;93862.44;;;15.52;100.00
10261;BME280;5175;42.606;23.388;2023-05-31T03:20:28;93856.00;;;15.39;100.00
10261;BME280;5175;42.606;23.388;2023-05-31T03:22:56;93860.84;;;15.51;100.00
10261;BME280;5175;42.606;23.388;2023-05-31T03:25:23;93853.63;;;15.38;100.00
10261;BME280;5175;42.606;23.388;2023-05-31T03:27:51;93862.75;;;15.50;100.00
10261;BME280;5175;42.606;23.388;2023-05-31T03:30:18;93859.31;;;15.58;100.00
10261;BME280;5175;42.606;23.388;2023-05-31T03:32:44;93862.31;;;15.57;100.00
10261;BME280;5175;42.606;23.388;2023-05-31T03:35:11;93862.31;;;15.57;100.00
10261;BME280;5175;42.606;23.388;2023-05-31T03:37:38;93868.25;;;15.45;100.00
10261;BME280;5175;42.606;23.388;2023-05-31T03:40:06;93873.13;;;15.65;100.00
10261;BME280;5175;42.606;23.388;2023-05-31T03:42:34;93872.41;;;15.82;100.00
10261;BME280;5175;42.606;23.388;2023-05-31T03:45:02;93872.59;;;15.86;100.00
10261;BME280;5175;42.606;23.388;2023-05-31T03:47:29;93874.97;;;15.87;100.00
10261;BME280;5175;42.606;23.388;2023-05-31T03:49:56;93869.19;;;15.72;100.00
10261;BME280;5175;42.606;23.388;2023-05-31T03:52:22;93877.19;;;15.85;100.00
10261;BME280;5175;42.606;23.388;2023-05-31T03:54:50;93873.81;;;15.80;100.00
10261;BME280;5175;42.606;23.388;2023-05-31T03:57:16;93876.03;;;15.78;100.00
10261;BME280;5175;42.606;23.388;2023-05-31T03:59:43;93881.34;;;15.91;100.00
10261;BME280;5175;42.606;23.388;2023-05-31T04:02:12;93887.88;;;15.99;100.00
10261;BME280;5175;42.606;23.388;2023-05-31T04:04:38;93882.78;;;15.97;100.00
10261;BME280;5175;42.606;23.388;2023-05-31T04:07:05;93887.13;;;16.07;100.00
10261;BME280;5175;42.606;23.388;2023-05-31T04:09:32;93885.22;;;16.07;100.00
10261;BME280;5175;42.606;23.388;2023-05-31T04:11:59;93887.53;;;16.31;100.00
10261;BME280;5175;42.606;23.388;2023-05-31T04:14:30;93882.16;;;16.31;100.00
10261;BME280;5175;42.606;23.388;2023-05-31T04:16:56;93892.75;;;16.27;100.00
10261;BME280;5175;42.606;23.388;2023-05-31T04:19:24;93894.53;;;16.01;100.00
10261;BME280;5175;42.606;23.388;2023-05-31T04:21:51;93893.94;;;16.13;100.00
10261;BME280;5175;42.606;23.388;2023-05-31T04:24:18;93889.81;;;16.07;100.00
10261;BME280;5175;42.606;23.388;2023-05-31T04:26:45;93893.94;;;16.13;100.00
10261;BME280;5175;42.606;23.388;2023-05-31T04:29:12;93884.44;;;16.15;100.00
10261;BME280;5175;42.606;23.388;2023-05-31T04:31:38;93895.75;;;16.26;100.00
10261;BME280;5175;42.606;23.388;2023-05-31T04:34:05;93901.66;;;16.37;100.00
10261;BME280;5175;42.606;23.388;2023-05-31T04:36:33;93907.03;;;16.37;100.00
10261;BME280;5175;42.606;23.388;2023-05-31T04:39:00;93902.78;;;16.36;100.00
10261;BME280;5175;42.606;23.388;2023-05-31T04:41:28;93899.75;;;16.37;100.00
10261;BME280;5175;42.606;23.388;2023-05-31T04:43:55;93910.31;;;16.56;100.00
10261;BME280;5175;42.606;23.388;2023-05-31T04:46:22;93911.41;;;16.55;100.00
10261;BME280;5175;42.606;23.388;2023-05-31T04:48:49;93914.44;;;16.62;100.00
10261;BME280;5175;42.606;23.388;2023-05-31T04:51:17;93913.69;;;16.70;100.00
10261;BME280;5175;42.606;23.388;2023-05-31T04:53:45;93918.13;;;16.66;100.00
10261;BME280;5175;42.606;23.388;2023-05-31T04:56:13;93919.25;;;16.73;100.00
10261;BME280;5175;42.606;23.388;2023-05-31T04:58:40;93916.91;;;16.89;100.00
10261;BME280;5175;42.606;23.388;2023-05-31T05:01:07;93912.78;;;17.00;100.00
10261;BME280;5175;42.606;23.388;2023-05-31T05:03:34;93913.44;;;16.97;100.00
10261;BME280;5175;42.606;23.388;2023-05-31T05:06:01;93931.69;;;17.09;100.00
10261;BME280;5175;42.606;23.388;2023-05-31T05:08:38;93926.47;;;17.12;100.00
10261;BME280;5175;42.606;23.388;2023-05-31T05:11:06;93934.72;;;17.16;100.00
10261;BME280;5175;42.606;23.388;2023-05-31T05:13:33;93941.06;;;17.11;100.00
10261;BME280;5175;42.606;23.388;2023-05-31T05:15:59;93940.28;;;17.19;100.00
10261;BME280;5175;42.606;23.388;2023-05-31T05:18:27;93938.38;;;17.28;100.00
10261;BME280;5175;42.606;23.388;2023-05-31T05:20:54;93948.56;;;17.48;100.00
10261;BME280;5175;42.606;23.388;2023-05-31T05:23:22;93946.69;;;17.58;100.00
10261;BME280;5175;42.606;23.388;2023-05-31T05:25:49;93950.78;;;17.72;100.00
10261;BME280;5175;42.606;23.388;2023-05-31T05:28:17;93949.53;;;17.70;100.00
10261;BME280;5175;42.606;23.388;2023-05-31T05:30:44;93970.03;;;17.79;100.00
10261;BME280;5175;42.606;23.388;2023-05-31T05:33:11;93963.53;;;17.72;100.00
10261;BME280;5175;42.606;23.388;2023-05-31T05:35:38;93964.47;;;17.76;100.00
10261;BME280;5175;42.606;23.388;2023-05-31T05:38:05;93963.84;;;17.79;100.00
10261;BME280;5175;42.606;23.388;2023-05-31T05:40:32;93972.56;;;17.84;100.00
10261;BME280;5175;42.606;23.388;2023-05-31T05:42:59;93966.66;;;17.82;100.00
10261;BME280;5175;42.606;23.388;2023-05-31T05:45:27;93957.16;;;17.76;100.00
10261;BME280;5175;42.606;23.388;2023-05-31T05:47:53;93969.22;;;17.79;100.00
10261;BME280;5175;42.606;23.388;2023-05-31T05:50:21;93972.72;;;17.79;100.00
10261;BME280;5175;42.606;23.388;2023-05-31T05:52:48;93962.72;;;17.63;100.00
10261;BME280;5175;42.606;23.388;2023-05-31T05:55:15;93960.66;;;17.68;100.00
10261;BME280;5175;42.606;23.388;2023-05-31T05:57:42;93965.72;;;17.52;100.00
10261;BME280;5175;42.606;23.388;2023-05-31T06:00:10;93966.19;;;17.46;100.00
10261;BME280;5175;42.606;23.388;2023-05-31T06:02:38;93958.69;;;17.34;100.00
10261;BME280;5175;42.606;23.388;2023-05-31T06:05:06;93957.94;;;17.51;100.00
10261;BME280;5175;42.606;23.388;2023-05-31T06:07:33;93959.69;;;17.81;100.00
10261;BME280;5175;42.606;23.388;2023-05-31T06:10:00;93971.91;;;17.96;100.00
10261;BME280;5175;42.606;23.388;2023-05-31T06:12:28;93978.88;;;18.14;100.00
10261;BME280;5175;42.606;23.388;2023-05-31T06:14:55;93968.56;;;18.07;100.00
10261;BME280;5175;42.606;23.388;2023-05-31T06:17:23;93974.69;;;18.34;100.00
10261;BME280;5175;42.606;23.388;2023-05-31T06:19:51;93968.81;;;18.40;100.00
10261;BME280;5175;42.606;23.388;2023-05-31T06:22:18;93975.97;;;18.53;100.00
10261;BME280;5175;42.606;23.388;2023-05-31T06:24:45;93973.38;;;18.65;100.00
10261;BME280;5175;42.606;23.388;2023-05-31T06:27:12;93977.97;;;18.73;100.00
10261;BME280;5175;42.606;23.388;2023-05-31T06:29:40;93971.38;;;18.83;100.00
10261;BME280;5175;42.606;23.388;2023-05-31T06:32:07;93991.00;;;19.09;100.00
10261;BME280;5175;42.606;23.388;2023-05-31T06:34:34;93974.16;;;19.04;100.00
10261;BME280;5175;42.606;23.388;2023-05-31T06:37:02;93979.38;;;19.09;100.00
10261;BME280;5175;42.606;23.388;2023-05-31T06:39:29;93964.03;;;19.21;100.00
10261;BME280;5175;42.606;23.388;2023-05-31T06:41:56;93965.63;;;19.22;100.00
10261;BME280;5175;42.606;23.388;2023-05-31T06:44:25;93970.81;;;19.36;100.00
10261;BME280;5175;42.606;23.388;2023-05-31T06:46:52;93970.66;;;19.41;100.00
10261;BME280;5175;42.606;23.388;2023-05-31T06:49:18;93969.31;;;19.47;100.00
10261;BME280;5175;42.606;23.388;2023-05-31T06:51:45;93971.72;;;19.49;100.00
10261;BME280;5175;42.606;23.388;2023-05-31T06:54:13;93977.19;;;19.61;100.00
10261;BME280;5175;42.606;23.388;2023-05-31T06:56:40;93970.13;;;19.68;100.00
10261;BME280;5175;42.606;23.388;2023-05-31T06:59:07;93982.47;;;19.78;100.00
10261;BME280;5175;42.606;23.388;2023-05-31T07:01:34;93983.50;;;19.85;100.00
10261;BME280;5175;42.606;23.388;2023-05-31T07:04:01;93974.25;;;20.07;100.00
10261;BME280;5175;42.606;23.388;2023-05-31T07:06:28;93983.63;;;20.10;100.00
10261;BME280;5175;42.606;23.388;2023-05-31T07:08:55;93976.56;;;20.17;100.00
10261;BME280;5175;42.606;23.388;2023-05-31T07:11:24;93978.81;;;20.36;100.00
10261;BME280;5175;42.606;23.388;2023-05-31T07:13:51;93978.91;;;20.39;100.00
10261;BME280;5175;42.606;23.388;2023-05-31T07:16:18;93980.63;;;20.44;100.00
10261;BME280;5175;42.606;23.388;2023-05-31T07:18:45;93970.28;;;20.58;100.00
10261;BME280;5175;42.606;23.388;2023-05-31T07:21:12;93978.78;;;20.81;100.00
10261;BME280;5175;42.606;23.388;2023-05-31T07:23:39;93984.44;;;20.88;100.00
10261;BME280;5175;42.606;23.388;2023-05-31T07:26:06;93984.88;;;20.78;100.00
10261;BME280;5175;42.606;23.388;2023-05-31T07:28:35;93984.56;;;20.91;98.74
10261;BME280;5175;42.606;23.388;2023-05-31T07:31:03;93990.47;;;21.05;99.83
10261;BME280;5175;42.606;23.388;2023-05-31T07:33:30;93994.00;;;21.30;98.66
10261;BME280;5175;42.606;23.388;2023-05-31T07:35:58;93982.13;;;21.10;98.70
10261;BME280;5175;42.606;23.388;2023-05-31T07:38:25;93989.47;;;21.46;98.74
10261;BME280;5175;42.606;23.388;2023-05-31T07:40:52;93985.28;;;21.25;100.00
10261;BME280;5175;42.606;23.388;2023-05-31T07:43:19;93991.25;;;21.66;97.95
10261;BME280;5175;42.606;23.388;2023-05-31T07:45:48;93992.94;;;21.71;95.59
10261;BME280;5175;42.606;23.388;2023-05-31T07:48:16;93995.88;;;21.90;93.30
10261;BME280;5175;42.606;23.388;2023-05-31T07:50:43;93992.47;;;21.81;94.80
10261;BME280;5175;42.606;23.388;2023-05-31T07:53:09;93982.75;;;21.80;95.89
10261;BME280;5175;42.606;23.388;2023-05-31T07:55:36;93992.56;;;21.84;92.46
10261;BME280;5175;42.606;23.388;2023-05-31T07:58:04;93991.81;;;21.72;93.57
10261;BME280;5175;42.606;23.388;2023-05-31T08:00:31;93998.25;;;21.92;94.84
10261;BME280;5175;42.606;23.388;2023-05-31T08:02:59;93991.88;;;22.00;94.52
10261;BME280;5175;42.606;23.388;2023-05-31T08:05:26;93992.50;;;22.21;92.32
10261;BME280;5175;42.606;23.388;2023-05-31T08:07:53;93989.78;;;22.21;92.95
10261;BME280;5175;42.606;23.388;2023-05-31T08:10:19;93984.97;;;22.30;92.98
10261;BME280;5175;42.606;23.388;2023-05-31T08:12:46;93996.88;;;22.53;88.80
10261;BME280;5175;42.606;23.388;2023-05-31T08:15:13;93986.94;;;22.45;90.33
10261;BME280;5175;42.606;23.388;2023-05-31T08:17:43;93987.03;;;22.49;92.75
10261;BME280;5175;42.606;23.388;2023-05-31T08:20:13;93984.28;;;22.33;92.38
10261;BME280;5175;42.606;23.388;2023-05-31T08:22:42;94000.78;;;22.68;91.62
10261;BME280;5175;42.606;23.388;2023-05-31T08:25:09;93984.94;;;22.58;92.28
10261;BME280;5175;42.606;23.388;2023-05-31T08:27:38;93980.31;;;22.30;94.06
10261;BME280;5175;42.606;23.388;2023-05-31T08:30:07;93981.50;;;22.17;94.60
10261;BME280;5175;42.606;23.388;2023-05-31T08:32:35;93987.19;;;22.40;92.54
10261;BME280;5175;42.606;23.388;2023-05-31T08:35:04;93981.66;;;22.36;91.46
10261;BME280;5175;42.606;23.388;2023-05-31T08:37:36;93988.53;;;22.74;90.97
10261;BME280;5175;42.606;23.388;2023-05-31T08:40:04;93984.50;;;22.99;88.00
10261;BME280;5175;42.606;23.388;2023-05-31T08:42:37;93985.47;;;23.22;86.64
10261;BME280;5175;42.606;23.388;2023-05-31T08:45:06;93976.50;;;23.53;84.05
10261;BME280;5175;42.606;23.388;2023-05-31T08:47:36;93983.75;;;23.80;81.31
10261;BME280;5175;42.606;23.388;2023-05-31T08:50:05;93978.66;;;23.63;82.22
10261;BME280;5175;42.606;23.388;2023-05-31T08:52:34;93991.06;;;23.29;82.99
10261;BME280;5175;42.606;23.388;2023-05-31T08:55:02;93980.38;;;23.05;85.78
10261;BME280;5175;42.606;23.388;2023-05-31T08:57:30;93985.50;;;22.63;88.94
10261;BME280;5175;42.606;23.388;2023-05-31T09:00:01;93969.72;;;22.69;87.85
10261;BME280;5175;42.606;23.388;2023-05-31T09:02:33;93980.31;;;22.58;87.48
10261;BME280;5175;42.606;23.388;2023-05-31T09:05:01;93965.25;;;22.33;91.28
10261;BME280;5175;42.606;23.388;2023-05-31T09:07:29;93971.91;;;22.35;89.81
10261;BME280;5175;42.606;23.388;2023-05-31T09:09:57;93956.41;;;22.36;93.77
10261;BME280;5175;42.606;23.388;2023-05-31T09:12:24;93952.38;;;22.45;92.25
10261;BME280;5175;42.606;23.388;2023-05-31T09:14:51;93958.75;;;22.65;92.61
10261;BME280;5175;42.606;23.388;2023-05-31T09:17:19;93948.19;;;22.48;91.14
10261;BME280;5175;42.606;23.388;2023-05-31T09:19:49;93941.44;;;22.58;93.31
10261;BME280;5175;42.606;23.388;2023-05-31T09:22:17;93944.03;;;22.66;94.07
10261;BME280;5175;42.606;23.388;2023-05-31T09:24:49;93941.19;;;22.63;91.96
10261;BME280;5175;42.606;23.388;2023-05-31T09:27:18;93944.03;;;22.82;93.50
10261;BME280;5175;42.606;23.388;2023-05-31T09:29:50;93932.63;;;22.92;89.49
10261;BME280;5175;42.606;23.388;2023-05-31T09:32:19;93928.03;;;23.12;92.04
10261;BME280;5175;42.606;23.388;2023-05-31T09:34:46;93926.47;;;23.42;89.82
10261;BME280;5175;42.606;23.388;2023-05-31T09:37:23;93928.53;;;23.48;86.99
10261;BME280;5175;42.606;23.388;2023-05-31T09:39:54;93926.56;;;23.64;87.96
10261;BME280;5175;42.606;23.388;2023-05-31T09:42:24;93920.78;;;23.50;89.81
10261;BME280;5175;42.606;23.388;2023-05-31T09:44:51;93915.84;;;23.21;87.72
10261;BME280;5175;42.606;23.388;2023-05-31T09:47:23;93922.00;;;23.02;92.84
10261;BME280;5175;42.606;23.388;2023-05-31T09:49:52;93929.72;;;23.00;91.70
10261;BME280;5175;42.606;23.388;2023-05-31T09:52:25;93921.38;;;22.78;96.72
10261;BME280;5175;42.606;23.388;2023-05-31T09:54:54;93910.59;;;23.32;94.79
10261;BME280;5175;42.606;23.388;2023-05-31T09:57:33;93910.69;;;23.35;97.99
10261;BME280;5175;42.606;23.388;2023-05-31T10:00:06;93910.81;;;23.93;93.26
10261;BME280;5175;42.606;23.388;2023-05-31T10:02:38;93915.97;;;24.36;90.54
10261;BME280;5175;42.606;23.388;2023-05-31T10:05:08;93915.84;;;23.91;88.82
10261;BME280;5175;42.606;23.388;2023-05-31T10:07:36;93918.09;;;23.70;88.08
10261;BME280;5175;42.606;23.388;2023-05-31T10:10:04;93914.41;;;23.43;93.43
10261;BME280;5175;42.606;23.388;2023-05-31T10:12:38;93902.44;;;23.47;93.28
10261;BME280;5175;42.606;23.388;2023-05-31T10:15:10;93909.72;;;23.59;95.24
10261;BME280;5175;42.606;23.388;2023-05-31T10:17:42;93913.53;;;23.39;92.42
10261;BME280;5175;42.606;23.388;2023-05-31T10:20:14;93921.97;;;23.18;91.18
10261;BME280;5175;42.606;23.388;2023-05-31T10:22:43;93926.09;;;23.12;82.54
10261;BME280;5175;42.606;23.388;2023-05-31T10:25:15;93930.97;;;22.72;85.46
10261;BME280;5175;42.606;23.388;2023-05-31T10:27:45;93931.50;;;22.50;84.20
10261;BME280;5175;42.606;23.388;2023-05-31T10:30:15;93921.13;;;22.39;89.10
10261;BME280;5175;42.606;23.388;2023-05-31T10:35:19;93911.19;;;22.16;89.20
10261;BME280;5175;42.606;23.388;2023-05-31T10:37:46;93906.03;;;22.26;91.89
10261;BME280;5175;42.606;23.388;2023-05-31T10:40:19;93899.47;;;22.27;92.33
10261;BME280;5175;42.606;23.388;2023-05-31T10:45:24;93909.84;;;22.53;83.53
10261;BME280;5175;42.606;23.388;2023-05-31T10:47:55;93909.31;;;22.48;83.83
10261;BME280;5175;42.606;23.388;2023-05-31T10:50:23;93904.88;;;22.71;86.62
10261;BME280;5175;42.606;23.388;2023-05-31T10:52:50;93901.63;;;22.96;80.16
10261;BME280;5175;42.606;23.388;2023-05-31T10:55:19;93902.94;;;23.02;76.21
10261;BME280;5175;42.606;23.388;2023-05-31T10:57:53;93828.03;;;23.08;78.16
10261;BME280;5175;42.606;23.388;2023-05-31T11:00:21;93909.72;;;24.36;74.33
10261;BME280;5175;42.606;23.388;2023-05-31T11:02:50;93887.09;;;24.77;62.79
10261;BME280;5175;42.606;23.388;2023-05-31T11:05:18;93879.81;;;24.62;63.57
10261;BME280;5175;42.606;23.388;2023-05-31T11:07:46;93885.38;;;24.46;63.74
10261;BME280;5175;42.606;23.388;2023-05-31T11:10:24;93881.22;;;24.52;62.45
10261;BME280;5175;42.606;23.388;2023-05-31T11:12:55;93888.13;;;24.92;60.77
10261;BME280;5175;42.606;23.388;2023-05-31T11:15:22;93870.78;;;25.03;61.76
10261;BME280;5175;42.606;23.388;2023-05-31T11:17:54;93876.97;;;25.26;58.67
10261;BME280;5175;42.606;23.388;2023-05-31T11:20:21;93877.13;;;25.63;62.09
10261;BME280;5175;42.606;23.388;2023-05-31T11:23:23;93873.63;;;25.36;59.34
10261;BME280;5175;42.606;23.388;2023-05-31T11:26:10;93868.97;;;25.40;60.46
10261;BME280;5175;42.606;23.388;2023-05-31T11:28:54;93872.31;;;25.53;57.68
10261;BME280;5175;42.606;23.388;2023-05-31T11:34:25;93866.78;;;26.09;53.70
10261;BME280;5175;42.606;23.388;2023-05-31T11:36:54;93872.69;;;26.48;49.34
10261;BME280;5175;42.606;23.388;2023-05-31T11:39:22;93815.72;;;26.20;52.78
10261;BME280;5175;42.606;23.388;2023-05-31T11:41:49;93859.50;;;26.60;51.84
10261;BME280;5175;42.606;23.388;2023-05-31T11:44:20;93846.63;;;27.05;53.08
10261;BME280;5175;42.606;23.388;2023-05-31T11:46:49;93853.63;;;27.53;52.45
10261;BME280;5175;42.606;23.388;2023-05-31T11:49:22;93856.78;;;27.55;53.72
10261;BME280;5175;42.606;23.388;2023-05-31T11:51:49;93846.16;;;27.47;55.81
10261;BME280;5175;42.606;23.388;2023-05-31T11:54:16;93865.19;;;27.32;55.41
10261;BME280;5175;42.606;23.388;2023-05-31T11:56:44;93855.84;;;27.37;54.84
10261;BME280;5175;42.606;23.388;2023-05-31T11:59:10;93840.03;;;27.74;58.14
10261;BME280;5175;42.606;23.388;2023-05-31T12:01:40;93851.44;;;27.22;55.45
10261;BME280;5175;42.606;23.388;2023-05-31T12:04:06;93859.25;;;26.72;54.33
10261;BME280;5175;42.606;23.388;2023-05-31T12:06:33;93848.09;;;26.15;54.56
10261;BME280;5175;42.606;23.388;2023-05-31T12:09:00;93851.13;;;25.76;54.86
10261;BME280;5175;42.606;23.388;2023-05-31T12:11:28;93853.22;;;25.30;56.25
10261;BME280;5175;42.606;23.388;2023-05-31T12:16:32;93814.88;;;24.06;56.18
10261;BME280;5175;42.606;23.388;2023-05-31T12:19:00;93838.22;;;23.65;59.71
10261;BME280;5175;42.606;23.388;2023-05-31T12:21:27;93841.19;;;23.57;61.07
10261;BME280;5175;42.606;23.388;2023-05-31T12:23:55;93825.31;;;23.08;62.26
10261;BME280;5175;42.606;23.388;2023-05-31T12:26:24;93831.50;;;22.90;62.54
10261;BME280;5175;42.606;23.388;2023-05-31T12:28:52;93819.31;;;22.53;66.24
10261;BME280;5175;42.606;23.388;2023-05-31T12:31:21;93808.91;;;22.39;64.13
10261;BME280;5175;42.606;23.388;2023-05-31T12:33:57;93835.88;;;22.48;64.27
10261;BME280;5175;42.606;23.388;2023-05-31T12:36:27;93827.72;;;22.48;63.64
10261;BME280;5175;42.606;23.388;2023-05-31T12:38:55;93823.53;;;22.66;63.45
10261;BME280;5175;42.606;23.388;2023-05-31T12:41:22;93824.16;;;22.59;64.51
10261;BME280;5175;42.606;23.388;2023-05-31T12:43:49;93827.91;;;22.86;63.97
10261;BME280;5175;42.606;23.388;2023-05-31T12:46:16;93814.66;;;22.84;66.23
10261;BME280;5175;42.606;23.388;2023-05-31T12:48:47;93817.66;;;22.79;63.52
10261;BME280;5175;42.606;23.388;2023-05-31T12:51:19;93824.34;;;23.01;65.11
10261;BME280;5175;42.606;23.388;2023-05-31T12:53:48;93820.50;;;23.02;64.36
10261;BME280;5175;42.606;23.388;2023-05-31T12:56:16;93826.22;;;22.97;63.59
10261;BME280;5175;42.606;23.388;2023-05-31T12:58:44;93820.50;;;23.02;63.72
10261;BME280;5175;42.606;23.388;2023-05-31T13:01:10;93830.09;;;22.80;63.26
10261;BME280;5175;42.606;23.388;2023-05-31T13:03:37;93832.47;;;22.82;65.30
10261;BME280;5175;42.606;23.388;2023-05-31T13:06:04;93831.38;;;22.67;66.27
10261;BME280;5175;42.606;23.388;2023-05-31T13:08:31;93827.81;;;22.51;68.32
10261;BME280;5175;42.606;23.388;2023-05-31T13:11:01;93815.88;;;22.56;67.01